Martin Explorer — WDB3168 — position and weather

sailwx.info

Track history (hours):
 
Tides and Currents Weather Stations Pressure Air Temp Water Temp Dewpoint Dewpoint Depression Visibility Wind Speed Wind Dir Waves Ship Positions

Martin Explorer

Owner: C F Martin Sulphur, LP, VIDOR, TX. More information available from US FCC via Universal Licensing System and Coast Guard Vessel Documentation Center.

Last reported at 2017-Sep-18 23:48 UTC. Time now 2017-Sep-21 03:19 UTC.
Position N 27°38' W 082°38'.

Length 158 m; draft 7.3 m.

Type: Towing. MMSI: 366884140.

Date/timePositionNaut miles runAvg speedWind from/ knotsBaromVisibWave heightAir tempDewpointWater temp
2017-Sep-18 23:48N 27°38' W 082°38'512.6
2017-Sep-18 23:27N 27°41' W 082°35'512.2
2017-Sep-18 23:00N 27°46' W 082°31'510.7
2017-Sep-18 22:30N 27°49' W 082°27'510.3
2017-Sep-18 22:00N 27°54' W 082°26'1 1.9
2017-Sep-18 21:30N 27°54' W 082°25'0 0.0
2017-Sep-18 21:00N 27°54' W 082°25'0 0.0
2017-Sep-18 20:27N 27°54' W 082°25'0 0.0
2017-Sep-18 20:00N 27°54' W 082°25'0 0.0
2017-Sep-18 19:30N 27°54' W 082°25'0 0.0
2017-Sep-18 19:00N 27°54' W 082°25'0 0.0
2017-Sep-18 18:30N 27°54' W 082°25'0 0.0
2017-Sep-18 18:00N 27°54' W 082°25'0 0.0
2017-Sep-18 17:30N 27°54' W 082°25'0 0.0
2017-Sep-18 17:00N 27°54' W 082°25'0 0.0
2017-Sep-18 16:30N 27°54' W 082°25'0 0.0
2017-Sep-18 16:00N 27°54' W 082°25'0 0.0
2017-Sep-18 15:30N 27°54' W 082°25'0 0.0
2017-Sep-18 15:00N 27°54' W 082°25'0 0.0
2017-Sep-18 14:30N 27°54' W 082°25'0 0.0
2017-Sep-18 14:00N 27°54' W 082°25'0 0.0
2017-Sep-18 13:30N 27°54' W 082°25'0 0.0
2017-Sep-18 13:00N 27°54' W 082°25'0 0.0
2017-Sep-18 12:30N 27°54' W 082°25'0 0.0
2017-Sep-18 11:59N 27°54' W 082°25'0 0.0
2017-Sep-18 11:29N 27°54' W 082°25'0 0.0
2017-Sep-18 11:00N 27°54' W 082°25'1 1.1
2017-Sep-18 10:30N 27°54' W 082°25'2 4.8
2017-Sep-18 10:00N 27°52' W 082°27'5 8.9
2017-Sep-18 09:29N 27°48' W 082°29'  
2017-Sep-14 11:07N 27°39' W 082°37'211.0
2017-Sep-14 10:59N 27°40' W 082°36'510.7
2017-Sep-14 10:30N 27°44' W 082°32'510.0
2017-Sep-14 10:00N 27°48' W 082°29'510.3
2017-Sep-14 09:30N 27°53' W 082°26'2 4.0
2017-Sep-14 09:00N 27°54' W 082°25'0 0.6
2017-Sep-14 08:30N 27°54' W 082°25'0 0.0
2017-Sep-14 07:58N 27°54' W 082°25'0 0.0
2017-Sep-14 07:28N 27°54' W 082°25'0 0.0
2017-Sep-14 06:55N 27°54' W 082°25'0 0.0
2017-Sep-14 06:28N 27°54' W 082°25'0 0.0
2017-Sep-14 06:01N 27°54' W 082°25'0 0.0
2017-Sep-14 05:28N 27°54' W 082°25'0 0.0
2017-Sep-14 05:01N 27°54' W 082°25'0 0.0
2017-Sep-14 04:31N 27°54' W 082°25'0 0.0
2017-Sep-14 04:00N 27°54' W 082°25'0 0.0
2017-Sep-14 03:24N 27°54' W 082°25'0 0.0
2017-Sep-14 03:00N 27°54' W 082°25'0 0.0
2017-Sep-14 02:30N 27°54' W 082°25'0 0.0
2017-Sep-14 02:00N 27°54' W 082°25'0 0.0
2017-Sep-14 01:30N 27°54' W 082°25'0 0.0
2017-Sep-14 01:00N 27°54' W 082°25'0 0.0
2017-Sep-14 00:30N 27°54' W 082°25'0 0.0
2017-Sep-14 00:00N 27°54' W 082°25'0 0.0
2017-Sep-13 23:30N 27°54' W 082°25'0 0.0
2017-Sep-13 23:00N 27°54' W 082°25'0 0.0
2017-Sep-13 22:30N 27°54' W 082°25'0 0.0
2017-Sep-13 21:57N 27°54' W 082°25'0 0.0
2017-Sep-13 21:31N 27°54' W 082°25'2 3.1
2017-Sep-13 21:00N 27°54' W 082°26'6 9.2
2017-Sep-13 20:23N 27°48' W 082°28'4 9.7
2017-Sep-13 20:00N 27°46' W 082°31'  
Track history (hours):
 
Tides and Currents Weather Stations Pressure Air Temp Water Temp Dewpoint Dewpoint Depression Visibility Wind Speed Wind Dir Waves Ship Positions

Martin Explorer

Owner: C F Martin Sulphur, LP, VIDOR, TX. More information available from US FCC via Universal Licensing System and Coast Guard Vessel Documentation Center.

Last reported at 2017-Sep-18 23:48 UTC. Time now 2017-Sep-21 03:19 UTC.
Position N 27°38' W 082°38'.

Length 158 m; draft 7.3 m.

Type: Towing. MMSI: 366884140.

Date/timePositionNaut miles runAvg speedWind from/ knotsBaromVisibWave heightAir tempDewpointWater temp
2017-Sep-18 23:48N 27°38' W 082°38'512.6
2017-Sep-18 23:27N 27°41' W 082°35'512.2
2017-Sep-18 23:00N 27°46' W 082°31'510.7
2017-Sep-18 22:30N 27°49' W 082°27'510.3
2017-Sep-18 22:00N 27°54' W 082°26'1 1.9
2017-Sep-18 21:30N 27°54' W 082°25'0 0.0
2017-Sep-18 21:00N 27°54' W 082°25'0 0.0
2017-Sep-18 20:27N 27°54' W 082°25'0 0.0
2017-Sep-18 20:00N 27°54' W 082°25'0 0.0
2017-Sep-18 19:30N 27°54' W 082°25'0 0.0
2017-Sep-18 19:00N 27°54' W 082°25'0 0.0
2017-Sep-18 18:30N 27°54' W 082°25'0 0.0
2017-Sep-18 18:00N 27°54' W 082°25'0 0.0
2017-Sep-18 17:30N 27°54' W 082°25'0 0.0
2017-Sep-18 17:00N 27°54' W 082°25'0 0.0
2017-Sep-18 16:30N 27°54' W 082°25'0 0.0
2017-Sep-18 16:00N 27°54' W 082°25'0 0.0
2017-Sep-18 15:30N 27°54' W 082°25'0 0.0
2017-Sep-18 15:00N 27°54' W 082°25'0 0.0
2017-Sep-18 14:30N 27°54' W 082°25'0 0.0
2017-Sep-18 14:00N 27°54' W 082°25'0 0.0
2017-Sep-18 13:30N 27°54' W 082°25'0 0.0
2017-Sep-18 13:00N 27°54' W 082°25'0 0.0
2017-Sep-18 12:30N 27°54' W 082°25'0 0.0
2017-Sep-18 11:59N 27°54' W 082°25'0 0.0
2017-Sep-18 11:29N 27°54' W 082°25'0 0.0
2017-Sep-18 11:00N 27°54' W 082°25'1 1.1
2017-Sep-18 10:30N 27°54' W 082°25'2 4.8
2017-Sep-18 10:00N 27°52' W 082°27'5 8.9
2017-Sep-18 09:29N 27°48' W 082°29'  
2017-Sep-14 11:07N 27°39' W 082°37'211.0
2017-Sep-14 10:59N 27°40' W 082°36'510.7
2017-Sep-14 10:30N 27°44' W 082°32'510.0
2017-Sep-14 10:00N 27°48' W 082°29'510.3
2017-Sep-14 09:30N 27°53' W 082°26'2 4.0
2017-Sep-14 09:00N 27°54' W 082°25'0 0.6
2017-Sep-14 08:30N 27°54' W 082°25'0 0.0
2017-Sep-14 07:58N 27°54' W 082°25'0 0.0
2017-Sep-14 07:28N 27°54' W 082°25'0 0.0
2017-Sep-14 06:55N 27°54' W 082°25'0 0.0
2017-Sep-14 06:28N 27°54' W 082°25'0 0.0
2017-Sep-14 06:01N 27°54' W 082°25'0 0.0
2017-Sep-14 05:28N 27°54' W 082°25'0 0.0
2017-Sep-14 05:01N 27°54' W 082°25'0 0.0
2017-Sep-14 04:31N 27°54' W 082°25'0 0.0
2017-Sep-14 04:00N 27°54' W 082°25'0 0.0
2017-Sep-14 03:24N 27°54' W 082°25'0 0.0
2017-Sep-14 03:00N 27°54' W 082°25'0 0.0
2017-Sep-14 02:30N 27°54' W 082°25'0 0.0
2017-Sep-14 02:00N 27°54' W 082°25'0 0.0
2017-Sep-14 01:30N 27°54' W 082°25'0 0.0
2017-Sep-14 01:00N 27°54' W 082°25'0 0.0
2017-Sep-14 00:30N 27°54' W 082°25'0 0.0
2017-Sep-14 00:00N 27°54' W 082°25'0 0.0
2017-Sep-13 23:30N 27°54' W 082°25'0 0.0
2017-Sep-13 23:00N 27°54' W 082°25'0 0.0
2017-Sep-13 22:30N 27°54' W 082°25'0 0.0
2017-Sep-13 21:57N 27°54' W 082°25'0 0.0
2017-Sep-13 21:31N 27°54' W 082°25'2 3.1
2017-Sep-13 21:00N 27°54' W 082°26'6 9.2
2017-Sep-13 20:23N 27°48' W 082°28'4 9.7
2017-Sep-13 20:00N 27°46' W 082°31'  

Dump ship's entire track history